Terminal Aerodrome Forecast
Issued by NWS

Home | Current Version | Previous Version | Text Only | Print | Product List | Glossary On
Versions: 1 2 3 4 5 6 7 8 9 10 11 12 13 14 15 16 17 18 19 20 21 22 23 24
000
FTUS44 KMAF 202100 CCA
TAFPEQ
TAF COR
KPEQ 202146Z 2022/2118 11011KT P6SM SHRA SCT040 BKN070
      TEMPO 2022/2024 VRB15G25KT 4SM -TSRA BKN025 BKN040CB
     FM210000 10006KT P6SM BKN050 OVC100
      TEMPO 2100/2104 4SM TSRA BKN020CB=

USA.gov is the U.S. government's official web portal to all federal, state and local government web resources and services.